Time;durP1;ratioP1;P1;durP2;ratioP2;P2;SDS_P1;SDS_P2;PMS_P1;PMS_P2;Temp;Humidity;BMP_temperature;BMP_pressure;BME280_temperature;BME280_humidity;BME280_pressure;Samples;Min_cycle;Max_cycle;Signal;HPM_P1;HPM_P2
2022/10/05 00:00:05;;;;;;;17.10;10.63;;;;;;;8.81;80.83;99637.29;2273240;78;20880;-80
2022/10/05 00:03:06;;;;;;;18.03;10.37;;;;;;;8.78;81.42;99628.08;2273092;78;20931;-81
2022/10/05 00:06:06;;;;;;;14.53;10.00;;;;;;;8.76;81.99;99634.08;2273380;78;20931;-81
2022/10/05 00:09:06;;;;;;;20.33;11.13;;;;;;;8.76;82.49;99636.68;2273324;78;20919;-81
2022/10/05 00:12:07;;;;;;;20.20;11.27;;;;;;;8.72;82.86;99634.40;2273414;78;21319;-81
2022/10/05 00:15:07;;;;;;;21.97;11.27;;;;;;;8.69;83.54;99631.70;2273358;78;21308;-81
2022/10/05 00:18:08;;;;;;;24.87;11.13;;;;;;;8.70;83.93;99629.98;2273339;78;21344;-80
2022/10/05 00:21:08;;;;;;;19.47;10.40;;;;;;;8.69;84.19;99622.59;2272960;78;21346;-80
2022/10/05 00:24:09;;;;;;;20.60;10.83;;;;;;;8.64;84.63;99616.32;2273146;78;20915;-82
2022/10/05 00:27:09;;;;;;;20.30;11.03;;;;;;;8.60;84.88;99627.47;2273323;78;20970;-82
2022/10/05 00:30:09;;;;;;;19.63;11.37;;;;;;;8.57;85.02;99623.47;2273249;78;21368;-82
2022/10/05 00:33:10;;;;;;;17.87;11.57;;;;;;;8.54;85.29;99616.86;2273144;78;20915;-80
2022/10/05 00:36:10;;;;;;;17.80;10.60;;;;;;;8.52;85.57;99612.03;2273125;78;20916;-80
2022/10/05 00:39:11;;;;;;;23.63;10.93;;;;;;;8.44;85.41;99605.69;2273123;78;21332;-80
2022/10/05 00:42:11;;;;;;;22.43;10.60;;;;;;;8.35;85.89;99602.80;2273210;78;20967;-82
2022/10/05 00:45:11;;;;;;;25.50;11.90;;;;;;;8.26;86.16;99596.42;2273619;78;20963;-84
2022/10/05 00:48:12;;;;;;;21.07;11.57;;;;;;;10.37;100.00;99593.48;2273406;78;21312;-84
2022/10/05 00:51:12;;;;;;;17.63;10.57;;;;;;;13.00;100.00;99584.33;2273154;78;20939;-82
2022/10/05 00:54:13;;;;;;;19.27;11.55;;;;;;;14.51;88.60;99574.23;2273262;78;20923;-82
2022/10/05 00:57:13;;;;;;;18.73;9.85;;;;;;;13.47;76.83;99580.59;2273098;78;21334;-82
2022/10/05 01:00:14;;;;;;;20.23;10.43;;;;;;;12.16;75.38;99587.34;2273275;78;20951;-83
2022/10/05 01:03:14;;;;;;;19.30;9.43;;;;;;;11.22;75.88;99588.94;2273431;78;21290;-82
2022/10/05 01:06:14;;;;;;;16.40;8.17;;;;;;;10.50;76.15;99586.02;2273605;78;20978;-83
2022/10/05 01:09:15;;;;;;;14.77;7.23;;;;;;;9.79;76.67;99577.62;2273524;78;20981;-83
2022/10/05 01:12:15;;;;;;;24.40;7.77;;;;;;;9.19;77.57;99578.55;2273398;78;21346;-83
2022/10/05 01:15:15;;;;;;;18.00;7.53;;;;;;;8.76;78.65;99571.19;2273249;78;20924;-83
2022/10/05 01:18:16;;;;;;;11.93;6.80;;;;;;;8.36;79.48;99577.25;2273772;78;20987;-83
2022/10/05 01:21:17;;;;;;;18.77;7.57;;;;;;;8.09;80.39;99576.78;2270955;78;20991;-84
2022/10/05 01:24:17;;;;;;;15.90;6.13;;;;;;;10.32;100.00;99579.44;2269403;78;20888;-82
2022/10/05 01:27:17;;;;;;;13.67;6.30;;;;;;;12.19;92.89;99569.08;2269382;78;20924;-83
2022/10/05 01:30:17;;;;;;;11.50;6.87;;;;;;;11.62;77.77;99575.39;2269055;78;20932;-83
2022/10/05 01:33:18;;;;;;;17.80;7.00;;;;;;;10.49;75.50;99582.95;2269270;78;20952;-83
2022/10/05 01:36:18;;;;;;;43.77;10.00;;;;;;;9.59;75.61;99583.61;2269082;78;21003;-83
2022/10/05 01:39:19;;;;;;;17.80;6.30;;;;;;;8.91;76.85;99591.17;2269231;78;20888;-83
2022/10/05 01:42:19;;;;;;;10.60;6.53;;;;;;;8.46;77.79;99601.42;2269300;78;20884;-83
2022/10/05 01:45:19;;;;;;;14.97;6.50;;;;;;;8.04;78.48;99599.14;2269466;78;20959;-83
2022/10/05 01:48:20;;;;;;;11.00;6.53;;;;;;;7.65;79.56;99598.20;2269541;78;20951;-83
2022/10/05 01:51:20;;;;;;;22.03;7.67;;;;;;;7.40;80.48;99594.27;2269736;78;20983;-82
2022/10/05 01:54:21;;;;;;;14.53;7.30;;;;;;;7.16;81.30;99585.58;2269748;78;20923;-84
2022/10/05 01:57:21;;;;;;;13.97;6.90;;;;;;;6.98;82.20;99571.09;2269504;78;20987;-84
2022/10/05 02:00:21;;;;;;;13.30;6.47;;;;;;;6.87;82.96;99580.15;2269648;78;20967;-83
2022/10/05 02:03:23;;;;;;;15.73;6.93;;;;;;;6.80;83.40;99579.44;2269257;78;21327;-84
2022/10/05 02:06:22;;;;;;;86.23;10.20;;;;;;;6.76;84.04;99573.66;2269205;78;20979;-83
2022/10/05 02:09:23;;;;;;;18.13;6.23;;;;;;;6.73;84.81;99577.44;2269949;78;20881;-83
2022/10/05 02:12:23;;;;;;;24.67;7.23;;;;;;;6.73;85.14;99572.66;2269752;78;20994;-83
2022/10/05 02:15:24;;;;;;;19.80;6.63;;;;;;;6.70;86.91;99569.54;2269867;78;21351;-84
2022/10/05 02:18:24;;;;;;;22.23;6.53;;;;;;;7.14;86.05;99571.66;2269644;78;20951;-83
2022/10/05 02:21:24;;;;;;;14.20;6.67;;;;;;;6.99;84.90;99561.17;2269224;78;21046;-84
2022/10/05 02:24:25;;;;;;;20.30;6.63;;;;;;;6.86;84.99;99570.59;2269578;78;20986;-84
2022/10/05 02:27:25;;;;;;;12.43;5.90;;;;;;;6.78;85.23;99573.31;2269409;78;21358;-84
2022/10/05 02:30:26;;;;;;;14.33;6.30;;;;;;;6.73;85.56;99580.45;2269573;78;20956;-84
2022/10/05 02:33:26;;;;;;;15.33;6.87;;;;;;;6.70;85.88;99587.70;2269557;78;20939;-83
2022/10/05 02:36:26;;;;;;;13.37;5.80;;;;;;;6.64;86.09;99583.16;2269492;78;21316;-83
2022/10/05 02:39:27;;;;;;;50.87;7.40;;;;;;;6.60;86.36;99592.05;2269823;78;20888;-83
2022/10/05 02:42:27;;;;;;;21.33;6.30;;;;;;;6.55;86.66;99596.18;2269626;78;20928;-83
2022/10/05 02:45:27;;;;;;;26.50;6.47;;;;;;;6.48;86.83;99600.65;2268904;78;20920;-83
2022/10/05 02:48:28;;;;;;;13.93;6.73;;;;;;;6.44;87.05;99599.64;2267970;78;20991;-84
2022/10/05 02:51:28;;;;;;;17.80;6.73;;;;;;;6.41;87.00;99603.41;2268282;78;21037;-84
2022/10/05 02:54:29;;;;;;;15.27;6.60;;;;;;;6.36;86.91;99608.41;2268680;78;20928;-83
2022/10/05 02:57:29;;;;;;;37.00;8.03;;;;;;;6.35;87.03;99613.53;2269633;78;20989;-84
2022/10/05 03:00:29;;;;;;;13.33;6.50;;;;;;;6.33;87.07;99603.10;2268171;78;21020;-84
2022/10/05 03:03:30;;;;;;;96.07;10.80;;;;;;;6.30;87.00;99617.65;2269147;78;20927;-84
2022/10/05 03:06:32;;;;;;;11.07;6.17;;;;;;;6.27;86.97;99622.71;2269267;78;20964;-84
2022/10/05 03:09:33;;;;;;;17.83;5.93;;;;;;;6.13;87.11;99602.70;2268674;78;21062;-84
2022/10/05 03:12:33;;;;;;;15.97;6.93;;;;;;;6.13;87.11;99602.70;2268673;78;21268;-83
2022/10/05 03:15:34;;;;;;;14.57;6.20;;;;;;;6.06;87.64;99595.45;2268502;78;20959;-83
2022/10/05 03:18:34;;;;;;;17.60;7.23;;;;;;;6.00;88.18;99599.98;2268403;78;20932;-84
2022/10/05 03:21:35;;;;;;;18.67;9.17;;;;;;;5.96;88.74;99599.78;2268688;78;21443;-84
2022/10/05 03:24:35;;;;;;;26.67;9.40;;;;;;;5.95;89.64;99605.78;2269168;78;20999;-83
2022/10/05 03:27:35;;;;;;;121.23;13.67;;;;;;;5.98;90.14;99613.69;2269015;78;21018;-83
2022/10/05 03:30:36;;;;;;;25.17;9.00;;;;;;;5.97;89.26;99608.03;2268352;78;20940;-79
2022/10/05 03:33:36;;;;;;;50.17;10.40;;;;;;;5.94;89.17;99582.87;2269313;78;20888;-83
2022/10/05 03:36:37;;;;;;;30.17;14.30;;;;;;;5.92;89.52;99570.67;2267492;78;21014;-83
2022/10/05 03:39:37;;;;;;;24.73;12.43;;;;;;;5.90;90.58;99559.36;2268348;78;21363;-84
2022/10/05 03:42:37;;;;;;;53.53;14.53;;;;;;;5.96;91.01;99554.02;2267630;78;20948;-79
2022/10/05 03:45:38;;;;;;;30.77;15.90;;;;;;;5.99;91.34;99549.38;2268640;78;20998;-83
2022/10/05 03:48:38;;;;;;;29.13;14.63;;;;;;;6.08;92.50;99557.97;2269711;78;20940;-82
2022/10/05 03:51:39;;;;;;;50.33;14.97;;;;;;;6.10;92.21;99557.21;2268751;78;21331;-83
2022/10/05 03:54:39;;;;;;;32.70;14.77;;;;;;;6.12;92.44;99551.67;2267990;78;21002;-83
2022/10/05 03:57:39;;;;;;;34.50;14.90;;;;;;;6.11;92.26;99544.72;2267111;78;21038;-83
2022/10/05 04:00:40;;;;;;;32.97;14.07;;;;;;;6.13;92.17;99549.56;2267320;78;21022;-82
2022/10/05 04:03:40;;;;;;;35.80;17.13;;;;;;;6.16;92.33;99548.80;2267097;78;21375;-82
2022/10/05 04:06:41;;;;;;;443.57;38.33;;;;;;;6.18;93.34;99540.67;2267258;78;21023;-85
2022/10/05 04:09:41;;;;;;;43.07;17.33;;;;;;;6.22;93.82;99533.08;2265928;78;21073;-83
2022/10/05 04:12:41;;;;;;;35.13;17.03;;;;;;;6.27;93.74;99530.26;2266335;78;20942;-84
2022/10/05 04:15:42;;;;;;;44.17;18.93;;;;;;;6.22;93.26;99528.30;2265365;78;21482;-84
2022/10/05 04:18:42;;;;;;;35.90;14.17;;;;;;;6.19;93.13;99538.55;2264916;78;21026;-83
2022/10/05 04:21:43;;;;;;;31.17;15.97;;;;;;;6.13;92.76;99537.89;2267338;78;21309;-84
2022/10/05 04:24:43;;;;;;;34.73;17.57;;;;;;;6.10;92.75;99536.89;2270338;78;21370;-82
2022/10/05 04:27:43;;;;;;;25.50;14.37;;;;;;;6.04;92.91;99537.08;2271303;78;20994;-84
2022/10/05 04:30:44;;;;;;;34.37;14.70;;;;;;;6.04;92.80;99564.70;2270553;78;20995;-84
2022/10/05 04:33:44;;;;;;;32.17;15.77;;;;;;;6.05;92.75;99561.29;2270201;78;21386;-86
2022/10/05 04:36:45;;;;;;;30.00;15.50;;;;;;;6.05;92.80;99559.58;2271649;78;21138;-83
2022/10/05 04:39:45;;;;;;;38.97;19.07;;;;;;;6.08;92.58;99560.56;2270994;78;20908;-84
2022/10/05 04:42:46;;;;;;;23.63;14.10;;;;;;;6.11;92.70;99565.87;2271015;78;21014;-83
2022/10/05 04:45:47;;;;;;;55.10;16.57;;;;;;;6.07;92.16;99560.97;2270257;78;21453;-82
2022/10/05 04:48:47;;;;;;;25.10;12.73;;;;;;;6.05;92.97;99558.70;2270803;78;21084;-84
2022/10/05 04:51:47;;;;;;;54.60;13.90;;;;;;;6.20;92.61;99560.65;2270775;78;21038;-80
2022/10/05 04:54:50;;;;;;;31.37;16.47;;;;;;;6.21;92.39;99565.02;2270764;78;20979;-81
2022/10/05 04:57:50;;;;;;;35.57;17.30;;;;;;;6.26;93.97;99567.37;2243543;78;20983;-84
2022/10/05 05:00:50;;;;;;;77.30;20.00;;;;;;;6.26;93.97;99567.37;2271097;78;21441;-84
2022/10/05 05:03:50;;;;;;;26.03;13.57;;;;;;;6.32;93.52;99571.92;2271341;78;21009;-84
2022/10/05 05:06:51;;;;;;;23.53;12.43;;;;;;;6.38;93.28;99558.79;2272156;78;20959;-84
2022/10/05 05:09:52;;;;;;;25.93;12.10;;;;;;;6.39;92.70;99551.89;2271015;78;21010;-84
2022/10/05 05:12:52;;;;;;;28.10;13.70;;;;;;;6.39;92.40;99554.48;2270848;78;20971;-84
2022/10/05 05:15:52;;;;;;;26.50;12.87;;;;;;;6.46;92.61;99556.91;2270536;78;20915;-84
2022/10/05 05:18:53;;;;;;;40.50;15.60;;;;;;;6.50;92.50;99538.94;2272182;78;21026;-83
2022/10/05 05:21:53;;;;;;;26.90;14.80;;;;;;;6.63;94.52;99546.36;2271773;78;21260;-82
2022/10/05 05:24:53;;;;;;;32.77;14.07;;;;;;;6.77;92.62;99530.02;2270905;78;20963;-83
2022/10/05 05:27:54;;;;;;;39.17;15.00;;;;;;;6.76;92.23;99529.97;2272284;78;21320;-83
2022/10/05 05:30:54;;;;;;;43.33;17.33;;;;;;;6.78;92.33;99534.39;2271343;78;20951;-81
2022/10/05 05:33:55;;;;;;;30.00;14.73;;;;;;;6.83;92.42;99543.23;2270538;78;21004;-83
2022/10/05 05:36:55;;;;;;;31.83;14.00;;;;;;;6.90;91.72;99536.14;2271591;78;21532;-82
2022/10/05 05:39:55;;;;;;;28.07;13.80;;;;;;;6.89;91.24;99546.05;2271753;78;21311;-82
2022/10/05 05:42:56;;;;;;;28.63;12.00;;;;;;;6.97;91.65;99563.24;2271029;78;20927;-83
2022/10/05 05:45:56;;;;;;;26.13;12.17;;;;;;;7.12;91.47;99570.30;2270644;78;21026;-82
2022/10/05 05:48:57;;;;;;;33.60;13.57;;;;;;;7.28;91.77;99577.83;2270774;78;20994;-83
2022/10/05 05:51:57;;;;;;;23.93;12.17;;;;;;;7.49;91.81;99564.72;2270487;78;21130;-82
2022/10/05 05:54:58;;;;;;;24.50;12.03;;;;;;;7.60;91.54;99567.28;2270551;78;20979;-85
2022/10/05 05:57:58;;;;;;;207.07;22.73;;;;;;;7.71;91.41;99574.56;2271016;78;20963;-84
2022/10/05 06:00:58;;;;;;;29.50;17.27;;;;;;;7.80;91.61;99575.80;2270682;78;21041;-83
2022/10/05 06:03:59;;;;;;;34.30;16.93;;;;;;;7.96;92.01;99578.09;2271954;78;20990;-83
2022/10/05 06:06:59;;;;;;;60.00;26.03;;;;;;;8.15;92.28;99576.98;2271519;78;21046;-83
2022/10/05 06:09:59;;;;;;;37.43;20.37;;;;;;;8.37;92.47;99581.20;2271414;78;20927;-83
2022/10/05 06:13:00;;;;;;;37.13;19.40;;;;;;;8.61;92.65;99581.09;2270688;78;21007;-84
2022/10/05 06:16:00;;;;;;;30.50;19.00;;;;;;;8.84;92.84;99580.53;2270660;78;21490;-83
2022/10/05 06:19:01;;;;;;;38.07;20.53;;;;;;;9.08;92.94;99577.35;2271319;78;20959;-82
2022/10/05 06:22:01;;;;;;;38.53;20.60;;;;;;;9.26;92.88;99575.70;2271259;78;21042;-83
2022/10/05 06:25:01;;;;;;;64.77;26.50;;;;;;;9.48;92.86;99557.64;2271221;78;21251;-83
2022/10/05 06:28:02;;;;;;;54.80;32.90;;;;;;;9.73;92.61;99548.36;2271449;78;21252;-83
2022/10/05 06:31:03;;;;;;;79.60;36.10;;;;;;;9.92;91.81;99544.50;2271140;78;20943;-83
2022/10/05 06:34:05;;;;;;;60.43;33.17;;;;;;;10.11;91.39;99557.16;2270771;78;20955;-79
2022/10/05 06:37:11;;;;;;;39.13;24.43;;;;;;;10.18;90.91;99569.52;2270193;78;21021;-83
2022/10/05 06:40:12;;;;;;;32.37;21.43;;;;;;;10.30;90.69;99570.70;2271787;78;20990;-82
2022/10/05 06:43:12;;;;;;;53.90;24.07;;;;;;;10.36;90.25;99569.11;2271926;78;20954;-83
2022/10/05 06:46:13;;;;;;;61.97;28.33;;;;;;;10.44;90.16;99564.11;2272165;78;20973;-82
2022/10/05 06:49:13;;;;;;;42.97;25.63;;;;;;;10.51;89.77;99570.81;2272704;78;20940;-83
2022/10/05 06:52:14;;;;;;;36.77;21.83;;;;;;;10.56;89.14;99563.52;2272285;78;21091;-82
2022/10/05 06:55:17;;;;;;;40.67;21.63;;;;;;;10.63;88.62;99565.00;2273051;78;21003;-83
2022/10/05 06:58:17;;;;;;;42.90;21.93;;;;;;;10.74;88.42;99569.16;2272010;78;20978;-85
2022/10/05 07:01:18;;;;;;;41.05;23.77;;;;;;;10.82;88.31;99564.56;2272170;78;20927;-85
2022/10/05 07:04:18;;;;;;;57.35;28.85;;;;;;;10.94;88.03;99561.34;2271527;78;20943;-86
2022/10/05 07:07:18;;;;;;;43.50;26.77;;;;;;;11.04;87.69;99563.30;2271063;78;20982;-82
2022/10/05 07:10:21;;;;;;;72.90;24.45;;;;;;;11.18;87.15;99557.05;2271208;78;20959;-85
2022/10/05 07:13:21;;;;;;;35.23;21.52;;;;;;;11.38;86.65;99558.37;2244082;78;21018;-82
2022/10/05 07:16:22;;;;;;;41.65;21.23;;;;;;;11.56;85.89;99565.70;2271960;78;21053;-84
2022/10/05 07:19:22;;;;;;;33.28;23.12;;;;;;;11.78;85.03;99563.09;2271488;78;21844;-84
2022/10/05 07:22:22;;;;;;;31.90;18.70;;;;;;;11.99;84.45;99565.20;2271700;78;21137;-83
2022/10/05 07:25:25;;;;;;;51.40;20.10;;;;;;;12.23;83.77;99567.39;2271425;78;20931;-83
2022/10/05 07:28:25;;;;;;;28.20;14.75;;;;;;;12.47;83.50;99573.03;2243039;78;21317;-84
2022/10/05 07:31:26;;;;;;;34.25;14.45;;;;;;;12.62;82.74;99579.81;2272132;78;21003;-84
2022/10/05 07:34:26;;;;;;;25.50;12.10;;;;;;;12.71;82.38;99573.40;2272439;78;21274;-82
2022/10/05 07:40:45;;;;;;;32.53;13.58;;;;;;;12.97;80.58;99571.58;2271043;78;20983;-82
2022/10/05 07:43:47;;;;;;;23.12;12.70;;;;;;;13.20;80.37;99577.19;2270255;78;20959;-81
2022/10/05 07:46:46;;;;;;;21.45;10.35;;;;;;;13.53;80.17;99572.79;2270453;78;21361;-83
2022/10/05 07:49:47;;;;;;;18.65;9.15;;;;;;;13.91;78.23;99567.55;2270066;78;21007;-83
2022/10/05 07:52:47;;;;;;;15.80;8.55;;;;;;;14.18;77.80;99572.61;2270071;78;21307;-83
2022/10/05 07:55:49;;;;;;;17.17;8.80;;;;;;;14.42;77.08;99575.48;2270759;78;20979;-84
2022/10/05 07:58:50;;;;;;;13.75;9.00;;;;;;;14.58;77.26;99569.91;2244057;78;20959;-83
2022/10/05 08:01:51;;;;;;;13.03;6.92;;;;;;;14.65;76.21;99560.77;2271783;78;20951;-82
2022/10/05 08:04:52;;;;;;;14.00;6.53;;;;;;;14.67;75.10;99555.52;2271040;78;21378;-83
2022/10/05 08:07:52;;;;;;;10.45;6.62;;;;;;;14.73;75.50;99559.94;2270776;78;21022;-82
2022/10/05 08:10:54;;;;;;;12.20;5.05;;;;;;;14.81;74.86;99556.95;2269761;78;20958;-81
2022/10/05 08:13:53;;;;;;;7.62;4.40;;;;;;;14.86;74.59;99565.31;2270194;78;21037;-82
2022/10/05 08:16:53;;;;;;;14.35;4.92;;;;;;;14.93;73.17;99564.48;2270951;78;20979;-84
2022/10/05 08:19:54;;;;;;;10.53;4.47;;;;;;;14.95;73.98;99567.99;2270764;78;21082;-83
2022/10/05 08:22:55;;;;;;;28.07;5.90;;;;;;;15.01;73.72;99571.09;2269953;78;21051;-80
2022/10/05 08:25:55;;;;;;;11.33;4.15;;;;;;;15.06;71.07;99571.12;2269259;78;21393;-81
2022/10/05 08:28:56;;;;;;;8.08;4.30;;;;;;;15.11;71.97;99578.59;2269295;78;20991;-81
2022/10/05 08:31:56;;;;;;;7.50;4.30;;;;;;;15.24;71.21;99569.89;2269256;78;21418;-80
2022/10/05 08:34:58;;;;;;;22.58;5.72;;;;;;;15.29;69.02;99576.93;2270973;78;20927;-81
2022/10/05 08:37:57;;;;;;;7.33;4.40;;;;;;;15.41;69.21;99580.48;2269583;78;20971;-82
2022/10/05 08:40:57;;;;;;;7.78;4.40;;;;;;;15.53;70.08;99577.47;2269373;78;21014;-81
2022/10/05 08:43:58;;;;;;;29.00;5.25;;;;;;;15.69;69.46;99573.20;2270382;78;20986;-81
2022/10/05 08:46:58;;;;;;;14.58;4.70;;;;;;;15.88;70.22;99573.69;2270318;78;20979;-79
2022/10/05 08:49:59;;;;;;;9.23;4.35;;;;;;;16.56;68.22;99561.45;2269583;78;21001;-82
2022/10/05 08:52:59;;;;;;;12.73;4.20;;;;;;;16.69;66.47;99567.63;2269016;78;21003;-83
2022/10/05 08:55:59;;;;;;;8.18;4.10;;;;;;;16.43;65.57;99563.19;2269526;78;21613;-81
2022/10/05 08:59:00;;;;;;;9.73;4.15;;;;;;;16.21;65.48;99553.53;2269893;78;20959;-82
2022/10/05 09:02:01;;;;;;;14.47;4.03;;;;;;;16.07;65.41;99552.64;2269799;78;21031;-82
2022/10/05 09:05:01;;;;;;;10.78;4.62;;;;;;;16.00;66.06;99564.05;2269877;78;20966;-82
2022/10/05 09:08:01;;;;;;;6.42;4.35;;;;;;;16.15;66.12;99553.09;2270176;78;21945;-81
2022/10/05 09:11:02;;;;;;;7.40;4.50;;;;;;;16.28;65.34;99551.34;2270399;78;20920;-82
2022/10/05 09:14:02;;;;;;;7.35;4.90;;;;;;;16.32;64.35;99549.14;2269829;78;20931;-82
2022/10/05 09:17:07;;;;;;;11.90;5.17;;;;;;;16.34;65.46;99542.11;2270145;78;21083;-80
2022/10/05 09:20:05;;;;;;;8.33;4.45;;;;;;;16.42;66.04;99546.94;2241535;78;21363;-83
2022/10/05 09:23:05;;;;;;;10.25;5.35;;;;;;;16.55;64.86;99542.13;2267412;78;21046;-81
2022/10/05 09:26:05;;;;;;;11.20;4.70;;;;;;;16.70;65.48;99534.67;2265464;78;20959;-79
2022/10/05 09:29:06;;;;;;;8.20;4.47;;;;;;;16.79;63.93;99536.41;2265749;78;21033;-81
2022/10/05 09:32:09;;;;;;;13.58;4.62;;;;;;;16.85;64.41;99535.08;2266178;78;21303;-82
2022/10/05 09:35:10;;;;;;;8.80;4.55;;;;;;;16.93;63.95;99525.39;2266308;78;21411;-81
2022/10/05 09:38:11;;;;;;;13.15;5.72;;;;;;;17.01;63.58;99525.36;2266234;78;20990;-81
2022/10/05 09:41:11;;;;;;;9.65;5.58;;;;;;;17.02;63.54;99525.80;2266102;78;21222;-80
2022/10/05 09:44:11;;;;;;;7.30;4.37;;;;;;;17.12;63.20;99532.36;2265989;78;20986;-82
2022/10/05 09:47:11;;;;;;;10.68;4.70;;;;;;;17.17;62.59;99534.53;2265514;78;21351;-84
2022/10/05 09:50:12;;;;;;;8.65;4.37;;;;;;;17.26;63.28;99539.34;2265412;78;20982;-82
2022/10/05 09:53:12;;;;;;;21.05;5.17;;;;;;;17.27;61.64;99538.02;2265332;78;21014;-82
2022/10/05 09:56:13;;;;;;;8.15;4.53;;;;;;;17.38;62.18;99540.64;2264969;78;20992;-81
2022/10/05 09:59:13;;;;;;;9.25;4.83;;;;;;;17.43;61.50;99531.81;2265556;78;21351;-82
2022/10/05 10:02:15;;;;;;;8.65;4.45;;;;;;;17.53;61.58;99526.05;2265524;78;20955;-80
2022/10/05 10:05:14;;;;;;;15.75;5.17;;;;;;;17.65;60.66;99529.94;2265761;78;21007;-82
2022/10/05 10:08:14;;;;;;;9.17;4.20;;;;;;;17.83;62.01;99537.78;2265395;78;20994;-80
2022/10/05 10:11:15;;;;;;;9.30;4.70;;;;;;;18.12;60.88;99532.30;2264931;78;21452;-80
2022/10/05 10:14:15;;;;;;;14.30;5.67;;;;;;;18.21;59.09;99534.46;2264748;78;20967;-83
2022/10/05 10:17:16;;;;;;;13.65;5.10;;;;;;;18.19;58.45;99531.80;2265225;78;21046;-82
2022/10/05 10:20:16;;;;;;;11.60;4.47;;;;;;;18.19;60.10;99533.56;2264302;78;21539;-82
2022/10/05 10:23:16;;;;;;;10.40;4.78;;;;;;;18.19;59.75;99529.16;2266683;78;21034;-82
2022/10/05 10:26:17;;;;;;;8.78;4.45;;;;;;;18.16;59.96;99523.89;2268652;78;20963;-82
2022/10/05 10:29:17;;;;;;;7.42;4.12;;;;;;;18.23;60.29;99528.28;2269196;78;20971;-80
2022/10/05 10:32:18;;;;;;;7.22;3.95;;;;;;;18.29;59.46;99524.70;2269980;78;20998;-81
2022/10/05 10:35:18;;;;;;;7.90;4.33;;;;;;;18.28;59.54;99515.03;2269995;78;20998;-83
2022/10/05 10:38:19;;;;;;;7.08;4.15;;;;;;;18.28;59.22;99518.55;2270041;78;21022;-83
2022/10/05 10:41:19;;;;;;;5.92;4.00;;;;;;;18.30;58.98;99514.56;2269707;78;20951;-80
2022/10/05 10:44:19;;;;;;;24.10;6.00;;;;;;;18.33;58.73;99510.58;2269756;78;20971;-82
2022/10/05 10:47:20;;;;;;;12.73;5.05;;;;;;;18.39;59.19;99507.43;2271028;78;21371;-82
2022/10/05 10:50:22;;;;;;;7.45;4.00;;;;;;;18.52;59.88;99503.35;2271330;78;20963;-85
2022/10/05 10:53:20;;;;;;;9.23;4.03;;;;;;;18.61;58.17;99504.58;2272280;78;21050;-83
2022/10/05 10:56:21;;;;;;;11.75;4.10;;;;;;;18.62;57.57;99505.92;2270975;78;21053;-83
2022/10/05 10:59:22;;;;;;;8.50;3.45;;;;;;;18.68;58.51;99506.30;2270975;78;21485;-83
2022/10/05 11:02:22;;;;;;;11.22;3.60;;;;;;;18.66;57.72;99497.06;2269840;78;20951;-84
2022/10/05 11:05:22;;;;;;;6.33;3.25;;;;;;;18.64;57.41;99498.84;2270375;78;20936;-83
2022/10/05 11:08:23;;;;;;;11.65;3.70;;;;;;;18.67;57.58;99503.23;2270823;78;21022;-83
2022/10/05 11:11:23;;;;;;;6.95;3.52;;;;;;;18.77;58.06;99499.15;2271495;78;20990;-84
2022/10/05 11:14:23;;;;;;;10.35;2.92;;;;;;;18.88;57.91;99493.73;2271593;78;20990;-83
2022/10/05 11:17:24;;;;;;;8.13;3.15;;;;;;;18.89;56.54;99498.58;2271094;78;21021;-81
2022/10/05 11:20:26;;;;;;;9.78;3.25;;;;;;;18.90;56.64;99497.24;2242986;78;21099;-82
2022/10/05 11:23:27;;;;;;;9.15;3.30;;;;;;;18.85;55.62;99503.03;2269299;78;21015;-83
2022/10/05 11:26:27;;;;;;;8.10;3.30;;;;;;;18.77;56.83;99499.15;2266678;78;21551;-81
2022/10/05 11:29:28;;;;;;;9.58;3.60;;;;;;;18.80;57.08;99493.40;2267354;78;20931;-82
2022/10/05 11:32:30;;;;;;;20.12;4.17;;;;;;;18.89;57.49;99494.17;2267071;78;20995;-80
2022/10/05 11:35:30;;;;;;;9.03;3.00;;;;;;;18.92;57.15;99496.78;2236163;78;20998;-82
2022/10/05 11:38:31;;;;;;;8.48;3.15;;;;;;;18.89;56.98;99495.48;2266161;78;21045;-81
2022/10/05 11:41:31;;;;;;;10.38;3.40;;;;;;;18.83;56.03;99499.97;2265426;78;21017;-82
2022/10/05 11:44:33;;;;;;;10.50;3.08;;;;;;;18.77;56.13;99489.02;2233670;78;21003;-81
2022/10/05 11:47:34;;;;;;;8.35;3.50;;;;;;;18.72;55.22;99496.13;2265862;78;20963;-81
2022/10/05 11:50:34;;;;;;;4.28;2.58;;;;;;;18.71;55.84;99487.77;2266443;78;20979;-80
2022/10/05 11:53:35;;;;;;;15.48;4.60;;;;;;;18.70;54.90;99489.53;2265095;78;21069;-82
2022/10/05 11:56:37;;;;;;;7.58;3.12;;;;;;;18.72;55.72;99479.81;2265723;78;21030;-83
2022/10/05 11:59:40;;;;;;;13.68;3.37;;;;;;;18.81;55.22;99480.16;2234025;78;20994;-82
2022/10/05 12:02:40;;;;;;;4.47;2.98;;;;;;;18.93;56.39;99480.46;2235027;78;20912;-81
2022/10/05 12:05:40;;;;;;;6.40;2.90;;;;;;;19.00;56.83;99480.37;2266104;78;20982;-84
2022/10/05 12:08:41;;;;;;;11.35;4.20;;;;;;;19.15;56.77;99471.40;2265188;78;20993;-82
2022/10/05 12:11:41;;;;;;;10.03;2.80;;;;;;;19.12;55.34;99470.11;2265554;78;20963;-82
2022/10/05 12:14:41;;;;;;;4.50;2.62;;;;;;;19.11;54.46;99478.07;2265323;78;20936;-80
2022/10/05 12:17:42;;;;;;;6.90;2.87;;;;;;;19.08;55.15;99470.59;2265264;78;21011;-82
2022/10/05 12:20:44;;;;;;;4.78;3.10;;;;;;;19.08;55.60;99458.70;2265210;78;21970;-81
2022/10/05 12:23:43;;;;;;;9.90;3.45;;;;;;;19.25;55.59;99466.41;2267100;78;21105;-81
2022/10/05 12:26:43;;;;;;;4.92;2.90;;;;;;;19.38;55.59;99464.47;2269059;78;20999;-81
2022/10/05 12:29:43;;;;;;;7.83;3.15;;;;;;;19.37;55.32;99459.63;2268366;78;21451;-81
2022/10/05 12:32:44;;;;;;;8.00;3.62;;;;;;;19.45;55.58;99463.94;2267994;78;20967;-82
2022/10/05 12:35:44;;;;;;;8.90;2.98;;;;;;;19.48;55.09;99462.13;2268366;78;20940;-83
2022/10/05 12:38:45;;;;;;;3.67;2.83;;;;;;;19.38;54.35;99456.53;2268987;78;21535;-83
2022/10/05 12:41:45;;;;;;;7.55;3.10;;;;;;;19.24;54.57;99454.08;2269224;78;20928;-83
2022/10/05 12:44:45;;;;;;;8.33;3.15;;;;;;;19.18;54.97;99458.58;2268366;78;20924;-81
2022/10/05 12:47:46;;;;;;;7.12;2.92;;;;;;;19.20;54.59;99460.75;2269094;78;20967;-82
2022/10/05 12:50:46;;;;;;;21.75;5.05;;;;;;;19.18;54.30;99461.22;2269073;78;20982;-81
2022/10/05 12:53:47;;;;;;;4.15;2.67;;;;;;;19.16;53.94;99449.78;2268720;78;20995;-81
2022/10/05 12:56:47;;;;;;;5.12;2.67;;;;;;;19.17;54.25;99461.66;2268705;78;20967;-81
2022/10/05 12:59:47;;;;;;;10.32;3.12;;;;;;;19.16;54.28;99451.98;2269003;78;20975;-81
2022/10/05 13:02:49;;;;;;;7.92;2.95;;;;;;;19.14;53.54;99459.06;2268964;78;21030;-85
2022/10/05 13:05:48;;;;;;;3.62;2.50;;;;;;;19.13;54.38;99451.14;2268886;78;21457;-81
2022/10/05 13:08:49;;;;;;;10.95;2.60;;;;;;;19.43;53.40;99454.70;2268618;78;21066;-81
2022/10/05 13:11:49;;;;;;;11.25;2.95;;;;;;;19.33;53.07;99453.08;2269289;78;20998;-82
2022/10/05 13:14:54;;;;;;;4.15;2.52;;;;;;;19.09;54.14;99459.13;2269821;78;20971;-82
2022/10/05 13:17:53;;;;;;;6.10;3.30;;;;;;;18.99;54.20;99469.36;2269921;78;21124;-83
2022/10/05 13:20:53;;;;;;;9.80;2.85;;;;;;;18.94;53.90;99470.31;2269431;78;21453;-82
2022/10/05 13:23:53;;;;;;;4.92;2.77;;;;;;;18.88;52.56;99468.61;2268666;78;21728;-82
2022/10/05 13:26:54;;;;;;;8.68;2.95;;;;;;;18.85;52.68;99470.42;2268439;78;20935;-82
2022/10/05 13:29:55;;;;;;;5.83;2.98;;;;;;;18.80;54.05;99469.15;2268892;78;20959;-82
2022/10/05 13:32:55;;;;;;;6.72;2.80;;;;;;;18.85;54.19;99467.77;2269095;78;21054;-82
2022/10/05 13:35:55;;;;;;;6.08;3.10;;;;;;;18.80;52.83;99453.72;2269877;78;21033;-82
2022/10/05 13:38:55;;;;;;;4.03;2.92;;;;;;;18.77;53.35;99448.02;2270338;78;21049;-83
2022/10/05 13:41:56;;;;;;;4.17;3.05;;;;;;;18.82;52.77;99453.26;2271192;78;20959;-81
2022/10/05 13:44:57;;;;;;;9.48;3.33;;;;;;;18.78;53.25;99443.16;2271310;78;21467;-84
2022/10/05 13:47:57;;;;;;;7.78;3.42;;;;;;;18.81;53.84;99440.93;2272482;78;20943;-83
2022/10/05 13:50:57;;;;;;;10.75;3.02;;;;;;;18.84;54.21;99443.09;2273024;78;20947;-83
2022/10/05 13:53:58;;;;;;;7.42;2.70;;;;;;;18.83;54.62;99443.11;2270457;78;21751;-84
2022/10/05 13:56:58;;;;;;;7.72;3.75;;;;;;;18.79;53.80;99439.63;2270958;78;20962;-82
2022/10/05 13:59:58;;;;;;;9.83;3.15;;;;;;;18.80;54.53;99437.41;2271527;78;20962;-83
2022/10/05 14:02:59;;;;;;;7.67;3.47;;;;;;;18.83;54.46;99442.66;2270453;78;20987;-82